Time;durP1;ratioP1;P1;durP2;ratioP2;P2;SDS_P1;SDS_P2;PMS_P1;PMS_P2;Temp;Humidity;BMP_temperature;BMP_pressure;BME280_temperature;BME280_humidity;BME280_pressure;Samples;Min_cycle;Max_cycle;Signal;HPM_P1;HPM_P2
2023/10/06 00:02:09;;;;;;;11.70;10.80;;;14.90;26.80;;;;;;4998824;28;20520;-81
2023/10/06 00:04:38;;;;;;;12.37;11.57;;;14.90;26.80;;;;;;5001845;28;20489;-81
2023/10/06 00:07:07;;;;;;;11.83;10.90;;;14.90;26.60;;;;;;4980813;28;20259;-81
2023/10/06 00:09:35;;;;;;;12.10;11.20;;;14.80;26.40;;;;;;4983374;28;20460;-81
2023/10/06 00:12:04;;;;;;;13.53;12.30;;;14.80;26.60;;;;;;4997699;28;20425;-78
2023/10/06 00:14:39;;;;;;;11.93;11.03;;;14.80;26.40;;;;;;4979767;28;20704;-80
2023/10/06 00:17:09;;;;;;;12.27;11.37;;;14.80;26.80;;;;;;4978608;28;20510;-79
2023/10/06 00:19:37;;;;;;;12.93;11.67;;;14.70;27.00;;;;;;4975561;28;20453;-81
2023/10/06 00:22:13;;;;;;;11.73;10.73;;;14.80;26.80;;;;;;4979476;28;20449;-81
2023/10/06 00:24:42;;;;;;;11.73;10.63;;;14.70;26.80;;;;;;4979563;28;20428;-77
2023/10/06 00:27:11;;;;;;;11.53;10.53;;;14.70;27.00;;;;;;4984087;28;20443;-81
2023/10/06 00:29:38;;;;;;;12.03;10.93;;;14.70;27.00;;;;;;4998423;28;20464;-81
2023/10/06 00:32:21;;;;;;;12.83;11.70;;;14.70;27.10;;;;;;5002098;28;20454;-80
2023/10/06 00:34:51;;;;;;;12.07;10.40;;;14.60;27.60;;;;;;5011366;28;20416;-80
2023/10/06 00:37:22;;;;;;;11.57;10.57;;;14.60;27.50;;;;;;4997504;28;20432;-80
2023/10/06 00:39:50;;;;;;;10.63;9.87;;;14.70;27.00;;;;;;4997735;28;20416;-81
2023/10/06 00:42:17;;;;;;;11.87;10.97;;;14.60;26.90;;;;;;4990201;28;20481;-79
2023/10/06 00:44:46;;;;;;;11.50;10.57;;;14.60;26.70;;;;;;4979541;28;20428;-78
2023/10/06 00:47:15;;;;;;;11.27;10.27;;;14.70;26.90;;;;;;4998207;28;20455;-79
2023/10/06 00:49:43;;;;;;;11.40;10.40;;;14.60;26.90;;;;;;4997896;28;20468;-81
2023/10/06 00:52:11;;;;;;;11.63;10.73;;;14.60;26.80;;;;;;4979817;28;20417;-80
2023/10/06 00:54:42;;;;;;;11.40;10.30;;;14.70;26.80;;;;;;4985403;28;20507;-79
2023/10/06 00:57:12;;;;;;;11.03;10.03;;;14.70;26.80;;;;;;4979793;28;20445;-80
2023/10/06 00:59:38;;;;;;;11.63;10.53;;;14.60;26.80;;;;;;4979674;28;20421;-78
2023/10/06 01:02:08;;;;;;;11.63;10.80;;;14.60;26.90;;;;;;4977151;28;20424;-78
2023/10/06 01:04:45;;;;;;;12.67;11.50;;;14.60;26.80;;;;;;4989816;28;20752;-80
2023/10/06 01:07:13;;;;;;;12.57;11.63;;;14.60;27.00;;;;;;5000283;28;20432;-80
2023/10/06 01:09:50;;;;;;;12.37;11.20;;;14.50;27.00;;;;;;4999093;28;20820;-80
2023/10/06 01:12:20;;;;;;;11.77;10.70;;;14.50;26.90;;;;;;4990362;28;20452;-78
2023/10/06 01:14:45;;;;;;;11.23;10.23;;;14.50;27.00;;;;;;4996870;28;20401;-80
2023/10/06 01:17:17;;;;;;;11.53;10.63;;;14.50;26.70;;;;;;4996180;28;20240;-80
2023/10/06 01:19:47;;;;;;;12.90;11.70;;;14.50;26.80;;;;;;4975247;28;20552;-80
2023/10/06 01:22:28;;;;;;;11.57;10.57;;;14.50;26.60;;;;;;4979136;28;20835;-82
2023/10/06 01:24:54;;;;;;;12.73;11.63;;;14.60;26.50;;;;;;4979423;28;20456;-82
2023/10/06 01:27:25;;;;;;;11.77;11.03;;;14.50;26.70;;;;;;4980599;28;21162;-82
2023/10/06 01:32:54;;;;;;;12.83;11.70;;;14.40;26.70;;;;;;4997357;28;20432;-82
2023/10/06 01:35:23;;;;;;;12.87;11.70;;;14.40;26.90;;;;;;4989287;28;20405;-81
2023/10/06 01:37:58;;;;;;;11.73;10.80;;;14.40;26.90;;;;;;5000397;28;20433;-81
2023/10/06 01:42:50;;;;;;;12.77;11.97;;;14.30;27.00;;;;;;5002655;28;20449;-81
2023/10/06 01:45:21;;;;;;;12.10;11.20;;;14.30;27.00;;;;;;4984866;28;20178;-81
2023/10/06 01:48:22;;;;;;;11.43;10.73;;;14.40;26.90;;;;;;4981278;28;20528;-80
2023/10/06 01:50:35;;;;;;;11.93;10.93;;;14.40;26.90;;;;;;4996875;28;20552;-82
2023/10/06 01:53:06;;;;;;;11.83;10.87;;;14.30;27.00;;;;;;4998576;28;20419;-80
2023/10/06 01:55:38;;;;;;;12.53;11.63;;;14.30;26.80;;;;;;4980929;28;20654;-81
2023/10/06 01:58:06;;;;;;;11.87;11.07;;;14.40;26.70;;;;;;5003146;28;20444;-78
2023/10/06 02:00:34;;;;;;;12.20;11.17;;;14.30;26.50;;;;;;4993223;28;20437;-79
2023/10/06 02:03:00;;;;;;;12.23;11.10;;;14.30;26.60;;;;;;4992521;28;20417;-79
2023/10/06 02:05:26;;;;;;;12.67;11.57;;;14.30;26.60;;;;;;5009620;28;20811;-79
2023/10/06 02:07:52;;;;;;;13.27;12.17;;;14.30;26.80;;;;;;5009612;28;20449;-78
2023/10/06 02:10:18;;;;;;;13.57;12.63;;;14.20;26.80;;;;;;5009839;28;20297;-81
2023/10/06 02:12:45;;;;;;;11.80;11.00;;;14.20;27.00;;;;;;4981440;28;20185;-81
2023/10/06 02:18:53;;;;;;;12.03;11.13;;;14.30;26.80;;;;;;4983609;28;20504;-78
2023/10/06 02:21:33;;;;;;;12.53;11.73;;;14.20;26.60;;;;;;4983600;28;20469;-81
2023/10/06 02:24:20;;;;;;;11.63;10.63;;;14.30;26.50;;;;;;4994236;28;20814;-80
2023/10/06 02:26:57;;;;;;;12.13;11.17;;;14.20;26.40;;;;;;4994836;28;20444;-81
2023/10/06 02:29:23;;;;;;;12.23;11.33;;;14.30;26.40;;;;;;4999818;28;20460;-77
2023/10/06 02:31:49;;;;;;;12.37;11.30;;;14.30;26.40;;;;;;4983571;28;20413;-80
2023/10/06 02:34:59;;;;;;;12.80;11.90;;;14.10;26.40;;;;;;4982434;28;20445;-80
2023/10/06 02:37:04;;;;;;;11.57;10.67;;;14.10;26.00;;;;;;4995350;28;20467;-81
2023/10/06 02:39:34;;;;;;;12.73;11.50;;;14.10;26.00;;;;;;5002221;28;20513;-79
2023/10/06 02:42:09;;;;;;;12.37;11.23;;;14.10;26.20;;;;;;5005185;28;20439;-80
2023/10/06 02:44:38;;;;;;;12.57;11.53;;;14.10;26.00;;;;;;5007841;28;20424;-80
2023/10/06 02:47:09;;;;;;;12.50;11.67;;;14.10;26.00;;;;;;4989894;28;20521;-78
2023/10/06 02:49:37;;;;;;;11.40;10.60;;;14.10;26.00;;;;;;4992147;28;20879;-79
2023/10/06 02:52:16;;;;;;;12.10;11.10;;;14.10;26.00;;;;;;5006048;28;20439;-79
2023/10/06 02:54:56;;;;;;;12.60;11.70;;;14.10;26.00;;;;;;4987180;28;20435;-78
2023/10/06 02:57:22;;;;;;;12.20;11.20;;;14.10;26.00;;;;;;5009489;28;20802;-78
2023/10/06 02:59:48;;;;;;;12.00;11.17;;;14.10;26.00;;;;;;4997459;28;20520;-78
2023/10/06 03:02:16;;;;;;;12.40;11.60;;;14.10;26.00;;;;;;4999159;28;20273;-76
2023/10/06 03:04:43;;;;;;;13.00;12.10;;;14.10;26.00;;;;;;4980132;28;20757;-80
2023/10/06 03:07:14;;;;;;;12.70;11.70;;;14.10;26.00;;;;;;4985461;28;20447;-77
2023/10/06 03:09:47;;;;;;;13.00;12.00;;;14.10;26.00;;;;;;5002498;28;20460;-81
2023/10/06 03:14:39;;;;;;;13.40;12.50;;;14.00;26.10;;;;;;5002945;28;20421;-77
2023/10/06 03:17:10;;;;;;;13.77;12.53;;;14.00;26.30;;;;;;5012331;28;20437;-77
2023/10/06 03:19:40;;;;;;;12.77;11.97;;;14.00;26.10;;;;;;4992008;28;20185;-80
2023/10/06 03:22:10;;;;;;;13.90;12.80;;;14.00;25.90;;;;;;5004968;28;20423;-79
2023/10/06 03:24:58;;;;;;;13.30;12.40;;;14.00;25.90;;;;;;4992302;28;20436;-81
2023/10/06 03:27:24;;;;;;;13.00;11.93;;;14.00;26.10;;;;;;4997291;28;20464;-81
2023/10/06 03:29:55;;;;;;;14.60;13.70;;;14.00;26.40;;;;;;4998823;28;20964;-81
2023/10/06 03:32:32;;;;;;;14.67;13.57;;;14.00;26.40;;;;;;4983091;28;20432;-81
2023/10/06 03:35:05;;;;;;;15.50;14.00;;;14.00;26.40;;;;;;4999395;28;20429;-81
2023/10/06 03:40:42;;;;;;;14.10;13.00;;;14.00;26.80;;;;;;4970139;28;20453;-80
2023/10/06 03:43:12;;;;;;;14.70;13.30;;;14.00;26.20;;;;;;4984610;28;20417;-80
2023/10/06 03:45:42;;;;;;;13.90;12.63;;;14.00;26.30;;;;;;4980857;28;20460;-79
2023/10/06 03:48:08;;;;;;;13.80;12.70;;;14.00;26.00;;;;;;4978324;28;20436;-80
2023/10/06 03:50:41;;;;;;;14.00;12.80;;;13.90;25.90;;;;;;5000328;28;20466;-79
2023/10/06 03:53:08;;;;;;;13.47;12.30;;;13.90;26.40;;;;;;4999743;28;20409;-80
2023/10/06 03:55:39;;;;;;;13.40;12.30;;;13.90;26.40;;;;;;4995812;28;20416;-82
2023/10/06 03:58:08;;;;;;;13.00;12.10;;;13.90;26.50;;;;;;4981526;28;20451;-81
2023/10/06 04:00:43;;;;;;;14.73;13.53;;;13.90;26.20;;;;;;4980030;28;20945;-79
2023/10/06 04:03:13;;;;;;;12.70;11.83;;;13.90;26.20;;;;;;4997903;28;20444;-80
2023/10/06 04:05:44;;;;;;;13.60;12.57;;;13.90;26.30;;;;;;5003174;28;20452;-79
2023/10/06 04:08:16;;;;;;;12.70;11.80;;;13.80;26.10;;;;;;4990088;28;20448;-80
2023/10/06 04:10:44;;;;;;;13.50;12.50;;;13.90;26.30;;;;;;4997665;28;20496;-81
2023/10/06 04:13:10;;;;;;;14.40;12.97;;;13.90;26.40;;;;;;4983076;28;20421;-80
2023/10/06 04:15:43;;;;;;;15.13;13.93;;;13.90;26.20;;;;;;4982460;28;20455;-80
2023/10/06 04:18:11;;;;;;;14.03;13.07;;;13.90;26.10;;;;;;4992959;28;20441;-80
2023/10/06 04:20:41;;;;;;;14.63;13.63;;;13.90;26.00;;;;;;4978362;28;20858;-79
2023/10/06 04:23:07;;;;;;;14.80;13.70;;;13.90;26.10;;;;;;4978102;28;20656;-79
2023/10/06 04:25:37;;;;;;;15.40;14.40;;;13.90;25.80;;;;;;4995095;28;20429;-79
2023/10/06 04:28:05;;;;;;;15.00;13.90;;;13.80;26.00;;;;;;4977327;28;20460;-80
2023/10/06 04:30:31;;;;;;;13.47;12.57;;;13.80;26.20;;;;;;4995889;28;20842;-80
2023/10/06 04:32:56;;;;;;;14.07;12.97;;;13.80;26.20;;;;;;4979002;28;20441;-79
2023/10/06 04:35:24;;;;;;;14.63;13.53;;;13.70;26.40;;;;;;4994824;28;20186;-80
2023/10/06 04:37:50;;;;;;;14.03;12.97;;;13.30;27.50;;;;;;4995465;28;20208;-80
2023/10/06 04:40:20;;;;;;;13.70;12.70;;;13.10;28.30;;;;;;4987080;28;20428;-80
2023/10/06 04:42:46;;;;;;;14.50;13.30;;;13.00;28.60;;;;;;4981068;28;20217;-80
2023/10/06 04:45:12;;;;;;;14.27;13.27;;;12.80;29.70;;;;;;4996876;28;20798;-80
2023/10/06 04:47:42;;;;;;;14.53;13.33;;;12.70;29.80;;;;;;4980714;28;20202;-82
2023/10/06 04:50:12;;;;;;;14.20;13.17;;;13.00;29.80;;;;;;4996015;28;20464;-82
2023/10/06 04:52:44;;;;;;;14.77;13.43;;;13.00;29.30;;;;;;4978687;28;20470;-83
2023/10/06 04:55:13;;;;;;;13.97;12.97;;;13.20;29.00;;;;;;4994195;28;20967;-82
2023/10/06 04:57:50;;;;;;;13.90;12.70;;;13.30;28.50;;;;;;4996743;28;20436;-83
2023/10/06 05:00:19;;;;;;;14.73;13.63;;;13.40;28.20;;;;;;4964922;28;20433;-85
2023/10/06 05:02:50;;;;;;;15.37;14.30;;;13.30;28.40;;;;;;4983166;28;20443;-84
2023/10/06 05:05:19;;;;;;;14.70;13.40;;;13.40;28.30;;;;;;4998664;28;20429;-84
2023/10/06 05:07:46;;;;;;;14.07;12.93;;;13.30;28.30;;;;;;4982719;28;20483;-82
2023/10/06 05:10:12;;;;;;;15.00;13.77;;;13.40;28.40;;;;;;4997197;28;20888;-83
2023/10/06 05:12:38;;;;;;;14.03;13.03;;;13.50;27.90;;;;;;4997950;28;20424;-82
2023/10/06 05:15:07;;;;;;;14.27;13.27;;;13.50;27.70;;;;;;4981097;28;20410;-82
2023/10/06 05:17:39;;;;;;;14.63;13.60;;;13.60;27.40;;;;;;4996001;28;20193;-81
2023/10/06 05:20:05;;;;;;;14.73;13.53;;;13.40;27.80;;;;;;4986820;28;20417;-80
2023/10/06 05:22:31;;;;;;;14.70;13.60;;;13.50;27.80;;;;;;5000944;28;20429;-81
2023/10/06 05:24:59;;;;;;;14.07;13.07;;;13.50;27.10;;;;;;4999338;28;20885;-79
2023/10/06 05:27:25;;;;;;;14.37;13.27;;;13.50;27.00;;;;;;5007451;28;20440;-81
2023/10/06 05:29:51;;;;;;;13.27;12.37;;;13.30;27.10;;;;;;4983519;28;20458;-78
2023/10/06 05:32:20;;;;;;;14.47;13.30;;;13.20;28.10;;;;;;5003792;28;20181;-81
2023/10/06 05:34:45;;;;;;;16.57;15.27;;;13.10;28.40;;;;;;4978702;28;20467;-81
2023/10/06 05:37:12;;;;;;;15.10;13.93;;;13.00;28.60;;;;;;4988560;28;20952;-81
2023/10/06 05:39:40;;;;;;;14.57;13.40;;;12.90;28.80;;;;;;4997302;28;20265;-78
2023/10/06 05:42:08;;;;;;;13.77;12.67;;;12.90;29.20;;;;;;4996792;28;20421;-79
2023/10/06 05:44:36;;;;;;;13.93;13.00;;;12.90;29.20;;;;;;4996650;28;20417;-79
2023/10/06 05:47:02;;;;;;;14.33;13.10;;;13.00;29.20;;;;;;4994715;28;20834;-80
2023/10/06 05:49:32;;;;;;;14.67;13.57;;;13.20;28.90;;;;;;4996725;28;20467;-81
2023/10/06 05:52:03;;;;;;;14.57;13.27;;;13.30;28.30;;;;;;4991121;28;20428;-81
2023/10/06 05:54:29;;;;;;;15.30;14.30;;;13.40;27.60;;;;;;4983703;28;20428;-80
2023/10/06 05:56:55;;;;;;;14.87;13.77;;;13.30;27.60;;;;;;4977861;28;20448;-78
2023/10/06 05:59:21;;;;;;;15.60;14.53;;;13.10;27.90;;;;;;4994733;28;20500;-79
2023/10/06 06:01:56;;;;;;;15.13;13.83;;;13.20;28.40;;;;;;4977713;28;20550;-79
2023/10/06 06:04:27;;;;;;;17.90;16.40;;;13.20;28.00;;;;;;4976655;28;20417;-78
2023/10/06 06:06:56;;;;;;;16.67;15.40;;;13.10;27.90;;;;;;4995007;28;20810;-78
2023/10/06 06:09:27;;;;;;;15.90;14.67;;;12.90;28.40;;;;;;4995345;28;20432;-78
2023/10/06 06:11:54;;;;;;;16.37;15.03;;;12.70;28.70;;;;;;4995845;28;20425;-79
2023/10/06 06:14:21;;;;;;;15.90;14.80;;;12.60;29.30;;;;;;4994758;28;20432;-78
2023/10/06 06:16:48;;;;;;;17.27;15.77;;;12.50;29.60;;;;;;4978356;28;20452;-78
2023/10/06 06:19:14;;;;;;;16.77;15.27;;;12.40;30.00;;;;;;4977571;28;20421;-77
2023/10/06 06:21:40;;;;;;;16.90;15.60;;;12.40;30.10;;;;;;4996338;28;20928;-79
2023/10/06 06:24:06;;;;;;;16.83;15.50;;;12.50;29.90;;;;;;4995049;28;20413;-77
2023/10/06 06:26:38;;;;;;;16.80;15.33;;;12.40;30.10;;;;;;4995543;28;20448;-79
2023/10/06 06:29:08;;;;;;;17.63;16.13;;;12.40;30.40;;;;;;4997856;28;20420;-79
2023/10/06 06:31:34;;;;;;;18.50;16.97;;;12.20;30.90;;;;;;4996371;28;20422;-77
2023/10/06 06:34:04;;;;;;;17.00;15.70;;;12.10;30.90;;;;;;4980095;28;20444;-79
2023/10/06 06:36:32;;;;;;;15.77;14.57;;;12.20;31.30;;;;;;4982636;28;20421;-80
2023/10/06 06:38:58;;;;;;;16.00;14.80;;;12.30;30.90;;;;;;5003389;28;20504;-78
2023/10/06 06:41:25;;;;;;;15.87;14.50;;;12.50;31.30;;;;;;4999570;28;20445;-79
2023/10/06 06:43:57;;;;;;;17.43;15.80;;;12.60;30.10;;;;;;4996816;28;20174;-80
2023/10/06 06:46:23;;;;;;;15.93;14.57;;;12.50;30.00;;;;;;4996772;28;20448;-80
2023/10/06 06:48:49;;;;;;;16.70;15.40;;;12.50;30.60;;;;;;4997110;28;20417;-80
2023/10/06 06:51:14;;;;;;;16.50;15.00;;;12.40;30.50;;;;;;4994586;28;20658;-79
2023/10/06 06:53:40;;;;;;;15.37;14.17;;;12.40;30.70;;;;;;4994848;28;20190;-78
2023/10/06 06:56:06;;;;;;;17.07;15.70;;;12.30;30.80;;;;;;4994663;28;20642;-79
2023/10/06 06:58:32;;;;;;;16.93;15.53;;;12.30;31.10;;;;;;4998945;28;20201;-80
2023/10/06 07:01:05;;;;;;;16.03;14.63;;;12.20;31.30;;;;;;4981188;28;20443;-79
2023/10/06 07:03:30;;;;;;;16.87;15.07;;;12.10;31.70;;;;;;5000145;28;20445;-80
2023/10/06 07:05:56;;;;;;;16.43;14.90;;;12.00;32.70;;;;;;4997742;28;20420;-79
2023/10/06 07:08:23;;;;;;;18.17;14.13;;;12.00;32.50;;;;;;4980289;28;20285;-79
2023/10/06 07:10:52;;;;;;;15.70;14.37;;;12.10;33.00;;;;;;4978411;28;20206;-79
2023/10/06 07:13:22;;;;;;;15.40;14.03;;;12.30;32.20;;;;;;4999622;28;20413;-83
2023/10/06 07:15:49;;;;;;;15.30;13.97;;;12.60;31.40;;;;;;4998505;28;20421;-80
2023/10/06 07:18:15;;;;;;;16.33;15.10;;;12.80;30.70;;;;;;4986114;28;20441;-78
2023/10/06 07:21:07;;;;;;;15.03;13.57;;;13.00;29.80;;;;;;4990160;28;20524;-80
2023/10/06 07:23:34;;;;;;;15.90;14.63;;;13.20;29.30;;;;;;4978872;28;20186;-80
2023/10/06 07:26:00;;;;;;;15.30;13.93;;;13.30;29.50;;;;;;5000068;28;20417;-79
2023/10/06 07:28:27;;;;;;;14.73;13.30;;;13.40;28.90;;;;;;4993515;28;20468;-78
2023/10/06 07:30:52;;;;;;;14.83;13.50;;;13.50;28.60;;;;;;4980018;28;20460;-80
2023/10/06 07:33:18;;;;;;;15.10;13.63;;;13.60;28.20;;;;;;4977729;28;20524;-79
2023/10/06 07:35:47;;;;;;;14.40;13.20;;;13.80;28.10;;;;;;4979328;28;20182;-78
2023/10/06 07:38:13;;;;;;;16.90;15.40;;;13.90;27.70;;;;;;4979341;28;20205;-77
2023/10/06 07:40:39;;;;;;;16.73;15.00;;;13.90;27.10;;;;;;4999707;28;20493;-79
2023/10/06 07:43:07;;;;;;;15.10;13.80;;;13.80;27.30;;;;;;4990343;28;20508;-79
2023/10/06 07:45:34;;;;;;;15.30;14.07;;;13.70;28.40;;;;;;4981203;28;20433;-80
2023/10/06 07:47:59;;;;;;;14.83;13.83;;;13.70;28.10;;;;;;4992188;28;20841;-80
2023/10/06 07:50:29;;;;;;;16.40;15.03;;;13.80;27.70;;;;;;4994975;28;20460;-80
2023/10/06 07:52:55;;;;;;;16.27;14.53;;;13.80;27.90;;;;;;4998738;28;20180;-80
2023/10/06 07:55:23;;;;;;;16.43;15.03;;;13.70;27.90;;;;;;4997847;28;20417;-79
2023/10/06 07:57:50;;;;;;;15.43;14.10;;;13.60;28.30;;;;;;4999791;28;20433;-81
2023/10/06 08:00:32;;;;;;;16.50;14.90;;;13.60;28.50;;;;;;4983101;28;20431;-80
2023/10/06 08:02:59;;;;;;;16.67;15.23;;;13.50;28.60;;;;;;5002720;28;20470;-80
2023/10/06 08:08:48;;;;;;;13.93;12.93;;;13.40;29.20;;;;;;4988813;28;20415;-79
2023/10/06 08:11:13;;;;;;;14.87;13.70;;;13.50;29.00;;;;;;4989995;28;20501;-80
2023/10/06 08:17:05;;;;;;;15.40;14.00;;;13.70;28.30;;;;;;4993067;28;20240;-78
2023/10/06 08:19:30;;;;;;;16.23;14.83;;;13.80;28.30;;;;;;4966831;28;20440;-81
2023/10/06 08:21:56;;;;;;;15.07;13.87;;;13.90;28.40;;;;;;4999880;28;20428;-80
2023/10/06 08:24:22;;;;;;;15.97;14.83;;;14.00;27.90;;;;;;4965430;28;20182;-78
2023/10/06 08:26:48;;;;;;;15.13;14.13;;;14.10;27.70;;;;;;4984888;28;20221;-77
2023/10/06 08:29:14;;;;;;;15.40;14.13;;;14.00;27.70;;;;;;4990189;28;20192;-81
2023/10/06 08:31:40;;;;;;;14.47;13.37;;;13.90;27.90;;;;;;4983091;28;20655;-80
2023/10/06 08:34:05;;;;;;;15.60;14.10;;;14.00;28.00;;;;;;4983224;28;20190;-79
2023/10/06 08:36:32;;;;;;;14.30;13.10;;;14.00;28.00;;;;;;5001171;28;20201;-79
2023/10/06 08:38:58;;;;;;;15.00;14.00;;;14.00;28.50;;;;;;5003209;28;20170;-79
2023/10/06 08:41:37;;;;;;;12.23;11.33;;;14.10;27.80;;;;;;5002865;28;20421;-81
2023/10/06 08:44:03;;;;;;;14.60;13.37;;;14.20;28.00;;;;;;4981594;28;20511;-78
2023/10/06 08:46:31;;;;;;;12.60;11.40;;;14.30;27.50;;;;;;4998609;28;20425;-80
2023/10/06 08:48:59;;;;;;;14.83;13.73;;;14.40;26.80;;;;;;4980638;28;20425;-80
2023/10/06 08:51:30;;;;;;;14.30;13.23;;;14.50;26.70;;;;;;4998352;28;20835;-78
2023/10/06 08:53:57;;;;;;;13.70;12.60;;;14.50;26.70;;;;;;4997578;28;20170;-79
2023/10/06 08:56:23;;;;;;;15.10;13.77;;;14.70;26.40;;;;;;4978718;28;20432;-79
2023/10/06 08:58:58;;;;;;;14.17;12.83;;;14.90;26.50;;;;;;4978765;28;20488;-81
2023/10/06 09:01:32;;;;;;;13.23;12.23;;;14.90;26.40;;;;;;4996903;28;20305;-78
2023/10/06 09:04:03;;;;;;;14.40;13.30;;;15.10;26.10;;;;;;4982258;28;20867;-80
2023/10/06 09:06:29;;;;;;;14.83;13.43;;;15.20;25.80;;;;;;4963899;28;20516;-77
2023/10/06 09:08:55;;;;;;;13.60;12.60;;;15.20;25.50;;;;;;4996911;28;20508;-78
2023/10/06 09:11:40;;;;;;;15.20;13.80;;;15.30;25.30;;;;;;4979025;28;20533;-79
2023/10/06 09:14:07;;;;;;;14.50;13.20;;;15.50;24.90;;;;;;4990388;28;20467;-79
2023/10/06 09:16:47;;;;;;;14.43;13.23;;;15.60;24.70;;;;;;4979367;28;20426;-79
2023/10/06 09:19:14;;;;;;;13.87;12.67;;;15.80;24.30;;;;;;4996104;28;20401;-80
2023/10/06 09:22:00;;;;;;;14.13;12.77;;;16.00;24.00;;;;;;4996414;28;20829;-79
2023/10/06 09:24:27;;;;;;;13.30;12.40;;;16.30;23.10;;;;;;4989004;28;20476;-79
2023/10/06 09:26:55;;;;;;;14.47;13.27;;;16.30;23.00;;;;;;4996222;28;20773;-79
2023/10/06 09:29:35;;;;;;;13.77;12.47;;;16.30;23.30;;;;;;4998583;28;20420;-79
2023/10/06 09:32:19;;;;;;;12.53;11.30;;;16.50;23.30;;;;;;5002980;28;20732;-80
2023/10/06 09:34:45;;;;;;;13.70;12.50;;;16.70;23.10;;;;;;4997846;28;20988;-78
2023/10/06 09:37:19;;;;;;;13.20;12.10;;;16.80;22.20;;;;;;4997875;28;20433;-77
2023/10/06 09:39:59;;;;;;;14.40;13.30;;;16.90;22.60;;;;;;4997286;28;20196;-78
2023/10/06 09:42:31;;;;;;;13.77;12.67;;;17.00;22.50;;;;;;4979914;28;20440;-78
2023/10/06 09:45:07;;;;;;;13.53;12.53;;;17.10;22.10;;;;;;4980907;28;20457;-78
2023/10/06 09:47:38;;;;;;;14.87;13.57;;;17.20;21.50;;;;;;4995500;28;20437;-78
2023/10/06 09:50:06;;;;;;;14.40;13.13;;;17.10;21.40;;;;;;4981876;28;20461;-79
2023/10/06 09:52:34;;;;;;;13.77;12.40;;;17.00;21.80;;;;;;4999063;28;21213;-78
2023/10/06 09:55:04;;;;;;;15.00;13.50;;;17.10;21.70;;;;;;5002159;28;20417;-78
2023/10/06 09:57:31;;;;;;;14.03;13.00;;;17.10;21.40;;;;;;5000749;28;20485;-78
2023/10/06 09:59:59;;;;;;;15.47;14.07;;;17.00;21.60;;;;;;5001056;28;20417;-80
2023/10/06 10:02:25;;;;;;;14.83;13.70;;;17.00;22.10;;;;;;4993887;28;20431;-78
2023/10/06 10:04:54;;;;;;;14.70;13.17;;;16.90;21.80;;;;;;5010377;28;20420;-79
2023/10/06 10:07:20;;;;;;;14.77;13.27;;;17.00;21.80;;;;;;5001717;28;20501;-80
2023/10/06 10:09:47;;;;;;;12.33;11.40;;;17.00;21.70;;;;;;5001334;28;20464;-78
2023/10/06 10:12:37;;;;;;;15.37;14.20;;;17.10;22.00;;;;;;5009648;28;20444;-79
2023/10/06 10:15:16;;;;;;;13.90;12.70;;;17.20;21.40;;;;;;5011848;28;20425;-79
2023/10/06 10:18:00;;;;;;;13.27;12.33;;;17.30;21.60;;;;;;4997540;28;20527;-79
2023/10/06 10:20:26;;;;;;;13.37;12.20;;;17.50;21.00;;;;;;4998083;28;20420;-79
2023/10/06 10:22:56;;;;;;;12.90;11.90;;;17.50;21.00;;;;;;4984865;28;20836;-78
2023/10/06 10:25:23;;;;;;;13.83;12.83;;;17.70;20.90;;;;;;4996383;28;20437;-79
2023/10/06 10:28:27;;;;;;;13.77;12.50;;;17.90;20.30;;;;;;4996242;28;20480;-79
2023/10/06 10:30:54;;;;;;;11.37;10.40;;;18.00;20.40;;;;;;4935610;29;20486;-78
2023/10/06 10:33:34;;;;;;;12.73;11.83;;;18.10;20.40;;;;;;4983961;28;20446;-78
2023/10/06 10:36:15;;;;;;;13.13;11.83;;;18.20;19.90;;;;;;4976311;28;20910;-79
2023/10/06 10:38:44;;;;;;;12.13;10.90;;;18.20;19.70;;;;;;4976531;28;20448;-79
2023/10/06 10:41:11;;;;;;;13.07;11.87;;;18.30;19.80;;;;;;4976826;28;20418;-79
2023/10/06 10:43:37;;;;;;;13.43;12.33;;;18.40;19.60;;;;;;4996226;28;20456;-79
2023/10/06 10:46:08;;;;;;;13.13;12.03;;;18.50;19.40;;;;;;4996270;28;20427;-79
2023/10/06 10:48:37;;;;;;;13.10;12.00;;;18.50;19.30;;;;;;4996961;28;20852;-80
2023/10/06 10:51:14;;;;;;;13.40;12.20;;;18.50;19.70;;;;;;4999646;28;20460;-79
2023/10/06 10:53:43;;;;;;;12.27;11.30;;;18.50;19.80;;;;;;4999931;28;20508;-80
2023/10/06 10:56:26;;;;;;;12.30;11.30;;;18.50;20.00;;;;;;5000393;28;20421;-80
2023/10/06 10:58:53;;;;;;;12.73;11.90;;;18.50;20.30;;;;;;4996177;28;20445;-79
2023/10/06 11:01:42;;;;;;;13.80;12.70;;;18.60;19.90;;;;;;4999370;28;20436;-79
2023/10/06 11:04:13;;;;;;;13.10;12.00;;;18.60;19.50;;;;;;4997444;28;21945;-79
2023/10/06 11:06:39;;;;;;;14.50;13.50;;;18.70;19.70;;;;;;4999964;28;20437;-79
2023/10/06 11:09:25;;;;;;;14.57;13.33;;;18.70;19.30;;;;;;4999265;28;20913;-80
2023/10/06 11:11:55;;;;;;;15.07;13.77;;;18.60;19.50;;;;;;5001427;28;20417;-79
2023/10/06 11:14:24;;;;;;;13.50;12.53;;;18.60;19.90;;;;;;5000581;28;20412;-80
2023/10/06 11:16:50;;;;;;;13.73;12.37;;;18.70;19.70;;;;;;5002343;28;20441;-78
2023/10/06 11:19:16;;;;;;;12.67;11.70;;;18.70;20.00;;;;;;5006076;28;20932;-78
2023/10/06 11:21:48;;;;;;;12.23;11.10;;;18.70;19.50;;;;;;4999765;28;20178;-79
2023/10/06 11:24:29;;;;;;;12.90;11.83;;;18.70;20.20;;;;;;4998707;28;20417;-79
2023/10/06 11:26:55;;;;;;;12.93;11.63;;;18.80;19.50;;;;;;4981575;28;20443;-81
2023/10/06 11:29:31;;;;;;;13.03;11.90;;;18.80;19.70;;;;;;4985463;28;20937;-79
2023/10/06 11:32:01;;;;;;;12.37;11.33;;;18.90;19.40;;;;;;4982221;28;20436;-79
2023/10/06 11:34:27;;;;;;;13.75;12.45;;;18.90;19.40;;;;;;4984235;28;20435;-80
2023/10/06 11:36:59;;;;;;;13.80;12.40;;;19.10;19.40;;;;;;5000057;28;20440;-81
2023/10/06 11:39:29;;;;;;;13.73;12.60;;;19.10;19.40;;;;;;5000027;28;20416;-80
2023/10/06 11:42:25;;;;;;;12.50;11.30;;;19.10;18.80;;;;;;5001141;28;20512;-80
2023/10/06 11:44:56;;;;;;;12.87;11.80;;;19.10;19.70;;;;;;4983562;28;20735;-80
2023/10/06 11:47:27;;;;;;;12.80;11.70;;;19.10;19.00;;;;;;4989343;23;20553;-60
2023/10/06 11:49:53;;;;;;;11.63;10.70;;;19.10;18.60;;;;;;5009455;28;20468;-60
2023/10/06 11:52:20;;;;;;;12.10;11.20;;;19.10;18.60;;;;;;5004524;28;20959;-60
2023/10/06 11:54:49;;;;;;;13.80;12.57;;;19.00;18.50;;;;;;5011801;28;20433;-60
2023/10/06 11:57:15;;;;;;;12.60;11.60;;;19.00;18.50;;;;;;5007571;28;20629;-59
2023/10/06 11:59:53;;;;;;;12.43;11.43;;;19.10;18.10;;;;;;5012673;28;20420;-61
2023/10/06 12:02:21;;;;;;;12.77;11.77;;;19.10;17.90;;;;;;5008624;28;20433;-60
2023/10/06 12:04:47;;;;;;;12.60;11.60;;;19.10;18.20;;;;;;5004534;28;20436;-60
2023/10/06 12:07:23;;;;;;;12.40;11.30;;;19.20;18.10;;;;;;5012595;28;20467;-60
2023/10/06 12:09:50;;;;;;;13.17;12.07;;;19.20;18.20;;;;;;5012447;28;20471;-60
2023/10/06 12:12:18;;;;;;;13.20;11.93;;;19.20;18.40;;;;;;5012434;28;20796;-60
2023/10/06 12:14:45;;;;;;;13.40;12.30;;;19.20;18.50;;;;;;5012383;28;20431;-60
2023/10/06 12:17:15;;;;;;;12.80;11.60;;;19.20;18.50;;;;;;5012312;28;20921;-61
2023/10/06 12:19:44;;;;;;;12.43;11.40;;;19.20;18.30;;;;;;5012345;28;20486;-59
2023/10/06 12:22:11;;;;;;;12.50;11.40;;;19.20;18.40;;;;;;5012172;28;20436;-58
2023/10/06 12:24:36;;;;;;;12.77;11.57;;;19.20;18.30;;;;;;5011994;28;20420;-58
2023/10/06 12:27:02;;;;;;;12.23;11.37;;;19.20;18.10;;;;;;5010485;28;20975;-59
2023/10/06 12:29:31;;;;;;;13.97;12.70;;;19.20;18.00;;;;;;5012900;28;20196;-59
2023/10/06 12:31:57;;;;;;;11.90;11.03;;;19.20;18.10;;;;;;5012225;28;20495;-58
2023/10/06 12:34:23;;;;;;;14.40;13.13;;;19.20;18.00;;;;;;5011794;28;20429;-58
2023/10/06 12:36:51;;;;;;;14.63;13.20;;;19.30;17.80;;;;;;5011773;28;20432;-59
2023/10/06 12:39:30;;;;;;;12.00;10.90;;;19.20;17.70;;;;;;5011899;28;20436;-59
2023/10/06 12:41:57;;;;;;;12.47;11.50;;;19.30;17.40;;;;;;5011971;28;20420;-59
2023/10/06 12:44:27;;;;;;;12.80;11.70;;;19.40;17.00;;;;;;5003348;28;20685;-64
2023/10/06 12:46:55;;;;;;;13.07;11.87;;;19.40;17.30;;;;;;5005890;28;20429;-64
2023/10/06 12:49:23;;;;;;;12.33;11.20;;;19.40;17.10;;;;;;5011850;28;20781;-59
2023/10/06 12:51:49;;;;;;;13.57;12.57;;;19.50;17.10;;;;;;5011780;28;20908;-59
2023/10/06 12:54:15;;;;;;;12.80;11.77;;;19.50;16.90;;;;;;5011374;28;20456;-59
2023/10/06 12:56:46;;;;;;;13.10;11.70;;;19.50;16.50;;;;;;5011570;28;20952;-64
2023/10/06 12:59:12;;;;;;;12.70;11.70;;;19.50;16.40;;;;;;5004739;28;20215;-65
2023/10/06 13:01:38;;;;;;;13.00;11.90;;;19.60;16.00;;;;;;5006472;28;20843;-65
2023/10/06 13:04:05;;;;;;;12.13;11.13;;;19.60;16.20;;;;;;5009303;28;20429;-64